createdAt,value
2023-01-13T00:00:03.366Z,7.45
2023-01-13T00:02:38.875Z,5.70
2023-01-13T00:05:07.168Z,8.45
2023-01-13T00:07:34.198Z,5.18
2023-01-13T00:10:01.126Z,4.95
2023-01-13T00:12:28.066Z,4.40
2023-01-13T00:14:55.152Z,4.18
2023-01-13T00:17:23.055Z,4.85
2023-01-13T00:19:50.098Z,5.25
2023-01-13T00:22:17.051Z,4.82
2023-01-13T00:24:43.945Z,4.80
2023-01-13T00:27:11.113Z,5.30
2023-01-13T00:29:38.019Z,4.90
2023-01-13T00:32:05.125Z,4.65
2023-01-13T00:34:32.059Z,7.05
2023-01-13T00:36:59.110Z,5.32
2023-01-13T00:39:26.072Z,6.10
2023-01-13T00:42:11.766Z,5.35
2023-01-13T00:44:38.693Z,5.55
2023-01-13T00:47:05.600Z,5.20
2023-01-13T00:49:32.571Z,7.00
2023-01-13T00:51:59.465Z,6.00
2023-01-13T00:54:26.538Z,5.95
2023-01-13T00:56:53.427Z,6.07
2023-01-13T00:59:20.350Z,5.97
2023-01-13T01:01:47.348Z,5.88
2023-01-13T01:04:14.343Z,6.15
2023-01-13T01:06:41.378Z,6.88
2023-01-13T01:09:08.354Z,6.18
2023-01-13T01:11:35.374Z,6.20
2023-01-13T01:14:04.139Z,6.68
2023-01-13T01:16:32.759Z,6.90
2023-01-13T01:19:00.387Z,6.57
2023-01-13T01:21:28.700Z,6.97
2023-01-13T01:23:55.680Z,6.32
2023-01-13T01:26:24.615Z,6.70
2023-01-13T01:28:51.991Z,6.75
2023-01-13T01:31:21.475Z,6.35
2023-01-13T01:33:49.310Z,6.07
2023-01-13T01:36:18.942Z,8.40
2023-01-13T01:38:46.460Z,7.20
2023-01-13T01:41:19.224Z,5.65
2023-01-13T01:44:03.160Z,6.57
2023-01-13T01:46:40.283Z,6.63
2023-01-13T01:49:14.464Z,7.15
2023-01-13T01:51:49.335Z,7.45
2023-01-13T01:54:21.908Z,6.40
2023-01-13T01:56:49.327Z,6.35
2023-01-13T01:59:16.475Z,6.22
2023-01-13T02:01:44.270Z,6.30
2023-01-13T02:04:19.773Z,6.50
2023-01-13T02:06:47.793Z,6.38
2023-01-13T02:09:15.208Z,7.13
2023-01-13T02:12:00.498Z,6.40
2023-01-13T02:14:28.781Z,6.85
2023-01-13T02:17:14.190Z,5.78
2023-01-13T02:20:12.019Z,5.32
2023-01-13T02:22:53.909Z,7.72
2023-01-13T02:25:58.313Z,4.50
2023-01-13T02:29:12.062Z,4.93
2023-01-13T02:31:43.599Z,4.50
2023-01-13T02:34:32.893Z,5.30
2023-01-13T02:37:15.198Z,4.43
2023-01-13T02:39:49.379Z,4.32
2023-01-13T02:42:44.586Z,4.70
2023-01-13T02:45:26.876Z,4.38
2023-01-13T02:47:56.493Z,4.15
2023-01-13T02:50:31.333Z,4.20
2023-01-13T02:53:01.216Z,4.80
2023-01-13T02:55:54.770Z,4.63
2023-01-13T02:58:24.859Z,4.43
2023-01-13T03:00:52.172Z,4.00
2023-01-13T03:03:19.521Z,3.58
2023-01-13T03:05:48.445Z,3.80
2023-01-13T03:08:47.869Z,3.65
2023-01-13T03:11:16.679Z,3.55
2023-01-13T03:14:02.598Z,3.50
2023-01-13T03:16:40.421Z,3.55
2023-01-13T03:19:20.665Z,3.20
2023-01-13T03:21:47.613Z,3.10
2023-01-13T03:24:18.272Z,3.67
2023-01-13T03:27:16.058Z,3.25
2023-01-13T03:29:45.622Z,2.97
2023-01-13T03:32:24.754Z,2.65
2023-01-13T03:34:59.311Z,2.67
2023-01-13T03:37:31.102Z,2.70
2023-01-13T03:42:28.561Z,2.35
2023-01-13T03:44:59.173Z,3.05
2023-01-13T03:47:43.160Z,2.55
2023-01-13T03:50:15.332Z,2.58
2023-01-13T03:52:55.224Z,2.70
2023-01-13T03:55:44.182Z,2.50
2023-01-13T03:58:19.931Z,2.65
2023-01-13T04:01:07.570Z,2.20
2023-01-13T04:03:41.638Z,2.53
2023-01-13T04:06:24.200Z,2.40
2023-01-13T04:08:55.963Z,2.00
2023-01-13T04:11:29.914Z,2.40
2023-01-13T04:13:57.301Z,2.35
2023-01-13T04:16:24.355Z,2.53
2023-01-13T04:18:51.493Z,2.33
2023-01-13T04:21:18.471Z,2.40
2023-01-13T04:23:45.870Z,2.40
2023-01-13T04:26:12.733Z,2.22
2023-01-13T04:28:40.864Z,2.63
2023-01-13T04:31:07.906Z,1.90
2023-01-13T04:33:34.842Z,1.90
2023-01-13T04:36:01.759Z,2.20
2023-01-13T04:38:28.647Z,1.70
2023-01-13T04:40:55.633Z,1.90
2023-01-13T04:43:22.673Z,1.73
2023-01-13T04:45:49.702Z,1.50
2023-01-13T04:48:16.612Z,1.90
2023-01-13T04:50:43.594Z,1.67
2023-01-13T04:53:10.472Z,13.43
2023-01-13T04:55:37.433Z,3.95
2023-01-13T04:58:06.631Z,3.70
2023-01-13T05:00:34.135Z,2.30
2023-01-13T05:03:01.380Z,2.08
2023-01-13T05:05:29.333Z,2.53
2023-01-13T05:07:57.320Z,2.03
2023-01-13T05:10:24.319Z,2.00
2023-01-13T05:13:09.658Z,2.85
2023-01-13T05:15:55.348Z,1.80
2023-01-13T05:18:22.440Z,2.88
2023-01-13T05:20:50.233Z,1.48
2023-01-13T05:23:35.739Z,1.80
2023-01-13T05:26:02.859Z,1.52
2023-01-13T05:28:34.198Z,1.88
2023-01-13T05:31:01.592Z,1.70
2023-01-13T05:33:28.670Z,1.80
2023-01-13T05:35:55.669Z,1.52
2023-01-13T05:38:22.561Z,1.60
2023-01-13T05:41:08.233Z,2.13
2023-01-13T05:43:35.292Z,1.60
2023-01-13T05:46:08.364Z,2.00
2023-01-13T05:48:37.223Z,1.95
2023-01-13T05:51:06.068Z,3.00
2023-01-13T05:53:33.381Z,3.00
2023-01-13T05:56:00.548Z,2.67
2023-01-13T05:58:28.315Z,2.90
2023-01-13T06:01:02.992Z,2.60
2023-01-13T06:03:30.184Z,1.80
2023-01-13T06:05:59.559Z,2.13
2023-01-13T06:08:26.675Z,2.17
2023-01-13T06:10:53.752Z,1.55
2023-01-13T06:13:20.964Z,1.27
2023-01-13T06:15:48.016Z,1.30
2023-01-13T06:18:15.137Z,1.92
2023-01-13T06:20:41.971Z,2.53
2023-01-13T06:23:12.283Z,2.92
2023-01-13T06:25:40.760Z,1.58
2023-01-13T06:28:08.145Z,1.33
2023-01-13T06:30:40.063Z,1.92
2023-01-13T06:33:11.267Z,1.55
2023-01-13T06:35:39.043Z,2.58
2023-01-13T06:38:09.596Z,2.10
2023-01-13T06:40:36.857Z,1.10
2023-01-13T06:43:17.026Z,1.25
2023-01-13T06:45:50.886Z,1.20
2023-01-13T06:48:19.313Z,1.35
2023-01-13T06:50:46.735Z,1.20
2023-01-13T06:53:14.924Z,1.23
2023-01-13T06:55:41.835Z,1.30
2023-01-13T06:58:08.985Z,2.30
2023-01-13T07:00:37.413Z,1.15
2023-01-13T07:03:18.072Z,1.85
2023-01-13T07:05:53.878Z,1.50
2023-01-13T07:08:22.143Z,1.95
2023-01-13T07:10:49.972Z,1.50
2023-01-13T07:13:37.920Z,1.80
2023-01-13T07:16:07.730Z,2.17
2023-01-13T07:18:35.554Z,2.22
2023-01-13T07:21:08.343Z,2.35
2023-01-13T07:23:40.217Z,2.88
2023-01-13T07:26:08.784Z,3.22
2023-01-13T07:28:36.233Z,3.03
2023-01-13T07:31:03.501Z,2.95
2023-01-13T07:33:33.583Z,2.92
2023-01-13T07:36:03.943Z,4.05
2023-01-13T07:38:32.289Z,3.35
2023-01-13T07:41:19.412Z,3.72
2023-01-13T07:43:46.774Z,3.88
2023-01-13T07:46:14.210Z,3.65
2023-01-13T07:48:41.607Z,3.70
2023-01-13T07:51:10.490Z,4.15
2023-01-13T07:53:38.171Z,4.53
2023-01-13T07:56:06.795Z,3.75
2023-01-13T07:58:35.321Z,3.40
2023-01-13T08:01:09.051Z,3.53
2023-01-13T08:03:36.224Z,3.90
2023-01-13T08:06:03.289Z,3.40
2023-01-13T08:08:30.144Z,3.70
2023-01-13T08:11:01.361Z,3.45
2023-01-13T08:13:28.403Z,3.55
2023-01-13T08:16:01.413Z,3.65
2023-01-13T08:18:28.712Z,3.50
2023-01-13T08:20:56.158Z,3.40
2023-01-13T08:23:23.599Z,3.08
2023-01-13T08:25:50.638Z,3.53
2023-01-13T08:28:17.754Z,3.42
2023-01-13T08:30:45.030Z,3.65
2023-01-13T08:33:13.078Z,3.28
2023-01-13T08:35:41.754Z,3.47
2023-01-13T08:38:09.277Z,3.47
2023-01-13T08:40:36.743Z,3.05
2023-01-13T08:43:04.021Z,3.08
2023-01-13T08:45:31.069Z,3.33
2023-01-13T08:47:58.863Z,3.65
2023-01-13T08:50:25.967Z,3.38
2023-01-13T08:52:53.263Z,4.22
2023-01-13T08:55:20.300Z,3.00
2023-01-13T08:57:47.259Z,3.40
2023-01-13T09:00:15.261Z,4.03
2023-01-13T09:02:42.284Z,4.07
2023-01-13T09:05:10.677Z,4.65
2023-01-13T09:07:38.872Z,4.70
2023-01-13T09:10:08.100Z,5.43
2023-01-13T09:12:54.207Z,4.50
2023-01-13T09:15:21.989Z,4.90
2023-01-13T09:17:48.961Z,4.60
2023-01-13T09:20:16.188Z,4.55
2023-01-13T09:22:43.142Z,4.47
2023-01-13T09:25:10.465Z,4.43
2023-01-13T09:27:37.459Z,4.43
2023-01-13T09:30:05.515Z,4.75
2023-01-13T09:32:32.896Z,4.70
2023-01-13T09:35:03.201Z,4.75
2023-01-13T09:37:34.352Z,4.25
2023-01-13T09:40:02.665Z,4.72
2023-01-13T09:43:21.723Z,4.47
2023-01-13T09:45:56.521Z,4.25
2023-01-13T09:48:30.484Z,4.60
2023-01-13T09:51:14.600Z,4.03
2023-01-13T09:53:49.925Z,3.67
2023-01-13T09:56:17.132Z,3.80
2023-01-13T09:58:45.920Z,3.85
2023-01-13T10:01:40.885Z,3.85
2023-01-13T10:04:12.812Z,3.75
2023-01-13T10:06:45.264Z,3.20
2023-01-13T10:10:09.268Z,2.67
2023-01-13T10:12:56.282Z,3.00
2023-01-13T10:15:25.981Z,3.05
2023-01-13T10:18:07.613Z,5.95
2023-01-13T10:20:54.962Z,5.82
2023-01-13T10:23:41.159Z,20.10
2023-01-13T10:26:31.037Z,8.88
2023-01-13T10:28:58.439Z,4.40
2023-01-13T10:31:26.208Z,5.60
2023-01-13T10:34:06.325Z,4.93
2023-01-13T10:36:33.474Z,5.28
2023-01-13T10:39:15.172Z,4.32
2023-01-13T10:41:42.172Z,4.47
2023-01-13T10:44:19.147Z,4.35
2023-01-13T10:46:59.435Z,4.88
2023-01-13T10:49:28.122Z,4.43
2023-01-13T10:51:55.147Z,3.55
2023-01-13T10:54:23.814Z,3.42
2023-01-13T10:57:16.208Z,2.60
2023-01-13T10:59:44.071Z,3.15
2023-01-13T11:02:25.333Z,2.40
2023-01-13T11:04:53.406Z,2.38
2023-01-13T11:07:41.366Z,3.67
2023-01-13T11:10:27.908Z,2.88
2023-01-13T11:13:14.806Z,2.35
2023-01-13T11:16:18.535Z,4.50
2023-01-13T11:19:17.960Z,5.55
2023-01-13T11:21:55.562Z,5.50
2023-01-13T11:24:27.883Z,2.20
2023-01-13T11:27:11.883Z,3.60
2023-01-13T11:29:44.168Z,7.05
2023-01-13T11:32:18.936Z,2.25
2023-01-13T11:34:52.677Z,4.65
2023-01-13T11:37:31.785Z,13.25
2023-01-13T11:40:13.041Z,18.65
2023-01-13T11:42:54.690Z,32.53
2023-01-13T11:45:24.909Z,18.23
2023-01-13T11:47:54.172Z,3.10
2023-01-13T11:50:35.539Z,3.50
2023-01-13T11:53:44.440Z,26.83
2023-01-13T11:56:29.862Z,5.57
2023-01-13T11:59:03.954Z,11.65
2023-01-13T12:01:40.967Z,7.15
2023-01-13T12:04:27.822Z,5.20
2023-01-13T12:07:14.492Z,8.30
2023-01-13T12:10:05.110Z,12.93
2023-01-13T12:12:43.973Z,5.97
2023-01-13T12:15:20.447Z,3.65
2023-01-13T12:17:55.928Z,13.25
2023-01-13T12:20:40.295Z,8.55
2023-01-13T12:23:36.246Z,11.63
2023-01-13T12:26:16.245Z,5.63
2023-01-13T12:29:03.581Z,4.60
2023-01-13T12:31:32.907Z,6.22
2023-01-13T12:34:02.601Z,3.53
2023-01-13T12:36:52.939Z,2.03
2023-01-13T12:39:53.014Z,2.60
2023-01-13T12:42:52.505Z,2.67
2023-01-13T12:45:22.146Z,4.28
2023-01-13T12:47:49.304Z,9.23
2023-01-13T12:50:21.961Z,5.28
2023-01-13T12:52:50.352Z,2.10
2023-01-13T12:55:22.283Z,4.32
2023-01-13T12:58:11.113Z,4.25
2023-01-13T13:00:41.116Z,3.38
2023-01-13T13:03:10.813Z,12.20
2023-01-13T13:06:00.836Z,5.32
2023-01-13T13:08:40.072Z,3.33
2023-01-13T13:11:39.643Z,8.15
2023-01-13T13:14:13.790Z,5.25
2023-01-13T13:16:49.735Z,6.68
2023-01-13T13:19:22.224Z,4.75
2023-01-13T13:22:18.102Z,6.05
2023-01-13T13:24:50.948Z,2.88
2023-01-13T13:27:42.708Z,3.88
2023-01-13T13:30:18.729Z,3.35
2023-01-13T13:33:15.926Z,3.22
2023-01-13T13:36:00.572Z,4.45
2023-01-13T13:39:23.062Z,2.53
2023-01-13T13:44:59.656Z,5.50
2023-01-13T13:47:35.484Z,8.63
2023-01-13T13:50:18.232Z,7.82
2023-01-13T13:52:54.354Z,6.03
2023-01-13T13:55:26.491Z,4.63
2023-01-13T13:57:55.265Z,8.93
2023-01-13T14:00:27.116Z,5.65
2023-01-13T14:05:31.394Z,10.23
2023-01-13T14:08:02.133Z,7.05
2023-01-13T14:10:35.151Z,9.23
2023-01-13T14:13:40.312Z,7.93
2023-01-13T14:16:11.766Z,9.85
2023-01-13T14:18:46.545Z,10.85
2023-01-13T14:21:23.224Z,6.88
2023-01-13T14:24:14.830Z,8.98
2023-01-13T14:26:42.280Z,8.57
2023-01-13T14:29:16.150Z,6.85
2023-01-13T14:31:43.923Z,9.95
2023-01-13T14:34:31.512Z,8.60
2023-01-13T14:36:58.509Z,10.35
2023-01-13T14:39:33.915Z,6.35
2023-01-13T14:42:00.935Z,4.53
2023-01-13T14:44:35.009Z,6.28
2023-01-13T14:47:32.276Z,7.38
2023-01-13T14:50:11.298Z,5.20
2023-01-13T14:52:49.227Z,6.50
2023-01-13T14:55:25.079Z,8.95
2023-01-13T14:57:52.533Z,9.93
2023-01-13T15:00:21.397Z,8.23
2023-01-13T15:03:07.334Z,7.32
2023-01-13T15:05:36.660Z,7.05
2023-01-13T15:08:11.692Z,9.82
2023-01-13T15:10:47.732Z,7.72
2023-01-13T15:13:36.736Z,8.57
2023-01-13T15:16:06.913Z,6.22
2023-01-13T15:18:36.058Z,5.20
2023-01-13T15:21:03.270Z,8.85
2023-01-13T15:23:30.148Z,7.15
2023-01-13T15:25:59.964Z,6.97
2023-01-13T15:28:27.558Z,7.93
2023-01-13T15:30:55.759Z,5.53
2023-01-13T15:33:23.217Z,10.15
2023-01-13T15:35:51.966Z,10.65
2023-01-13T15:38:21.162Z,8.45
2023-01-13T15:40:49.482Z,7.47
2023-01-13T15:43:40.063Z,8.90
2023-01-13T15:46:19.429Z,13.98
2023-01-13T15:48:46.532Z,10.85
2023-01-13T15:51:21.265Z,6.75
2023-01-13T15:53:48.217Z,6.82
2023-01-13T15:56:24.056Z,7.20
2023-01-13T15:58:51.071Z,8.00
2023-01-13T16:01:18.232Z,5.53
2023-01-13T16:03:45.310Z,8.65
2023-01-13T16:06:28.528Z,15.73
2023-01-13T16:08:55.498Z,7.38
2023-01-13T16:11:22.392Z,4.70
2023-01-13T16:13:49.305Z,6.45
2023-01-13T16:16:25.578Z,6.15
2023-01-13T16:18:53.762Z,6.55
2023-01-13T16:21:21.637Z,6.35
2023-01-13T16:23:50.112Z,5.57
2023-01-13T16:26:26.019Z,5.80
2023-01-13T16:28:54.542Z,7.43
2023-01-13T16:31:32.027Z,6.20
2023-01-13T16:34:03.455Z,5.32
2023-01-13T16:36:32.335Z,7.00
2023-01-13T16:38:59.481Z,6.05
2023-01-13T16:41:26.461Z,11.75
2023-01-13T16:43:53.968Z,10.60
2023-01-13T16:46:24.535Z,8.82
2023-01-13T16:48:53.868Z,6.50
2023-01-13T16:51:21.954Z,11.80
2023-01-13T16:53:49.502Z,9.20
2023-01-13T16:56:20.820Z,11.02
2023-01-13T16:58:49.976Z,14.20
2023-01-13T17:01:24.205Z,11.52
2023-01-13T17:03:52.812Z,11.50
2023-01-13T17:06:29.209Z,9.02
2023-01-13T17:09:20.129Z,14.57
2023-01-13T17:11:47.552Z,11.70
2023-01-13T17:14:19.215Z,17.08
2023-01-13T17:16:47.248Z,11.35
2023-01-13T17:19:14.609Z,10.02
2023-01-13T17:21:42.464Z,13.52
2023-01-13T17:24:12.670Z,8.57
2023-01-13T17:26:42.519Z,9.27
2023-01-13T17:29:14.283Z,9.30
2023-01-13T17:31:41.861Z,11.35
2023-01-13T17:34:11.666Z,13.02
2023-01-13T17:36:41.271Z,6.32
2023-01-13T17:39:11.350Z,8.77
2023-01-13T17:41:40.504Z,7.70
2023-01-13T17:44:08.040Z,7.18
2023-01-13T17:46:36.460Z,12.05
2023-01-13T17:49:04.349Z,11.98
2023-01-13T17:51:31.538Z,8.10
2023-01-13T17:53:58.508Z,10.68
2023-01-13T17:56:25.787Z,11.77
2023-01-13T17:58:53.351Z,10.18
2023-01-13T18:01:21.989Z,6.78
2023-01-13T18:03:49.720Z,14.13
2023-01-13T18:06:19.712Z,14.55
2023-01-13T18:08:47.210Z,12.02
2023-01-13T18:11:18.767Z,11.05
2023-01-13T18:14:00.396Z,7.28
2023-01-13T18:16:30.402Z,6.20
2023-01-13T18:19:18.667Z,4.57
2023-01-13T18:22:05.498Z,7.40
2023-01-13T18:24:51.386Z,6.22
2023-01-13T18:27:26.758Z,5.70
2023-01-13T18:29:56.409Z,9.45
2023-01-13T18:32:26.535Z,5.68
2023-01-13T18:35:04.794Z,8.25
2023-01-13T18:37:33.655Z,5.82
2023-01-13T18:40:00.605Z,7.85
2023-01-13T18:42:46.512Z,7.05
2023-01-13T18:45:13.481Z,9.85
2023-01-13T18:47:42.347Z,10.13
2023-01-13T18:50:12.303Z,9.15
2023-01-13T18:52:40.499Z,7.93
2023-01-13T18:55:07.908Z,10.10
2023-01-13T18:57:40.155Z,9.75
2023-01-13T19:00:13.323Z,11.15
2023-01-13T19:02:40.794Z,6.63
2023-01-13T19:05:08.089Z,10.77
2023-01-13T19:07:36.035Z,10.90
2023-01-13T19:10:04.644Z,9.80
2023-01-13T19:12:31.817Z,11.00
2023-01-13T19:14:59.515Z,7.85
2023-01-13T19:17:33.687Z,7.15
2023-01-13T19:20:00.915Z,7.47
2023-01-13T19:22:31.024Z,8.60
2023-01-13T19:24:58.604Z,7.20
2023-01-13T19:27:27.477Z,7.50
2023-01-13T19:29:58.113Z,5.78
2023-01-13T19:32:25.280Z,5.47
2023-01-13T19:34:53.274Z,7.18
2023-01-13T19:37:20.277Z,4.85
2023-01-13T19:39:47.172Z,8.32
2023-01-13T19:42:32.757Z,5.22
2023-01-13T19:45:18.355Z,7.43
2023-01-13T19:47:46.128Z,7.15
2023-01-13T19:50:14.066Z,5.80
2023-01-13T19:52:42.258Z,7.93
2023-01-13T19:55:11.702Z,6.05
2023-01-13T19:57:40.288Z,7.97
2023-01-13T20:00:09.078Z,8.35
2023-01-13T20:02:49.156Z,6.72
2023-01-13T20:05:21.404Z,8.98
2023-01-13T20:10:18.843Z,6.88
2023-01-13T20:12:46.865Z,4.53
2023-01-13T20:15:14.632Z,5.88
2023-01-13T20:17:41.908Z,6.45
2023-01-13T20:20:10.765Z,4.63
2023-01-13T20:22:41.300Z,6.68
2023-01-13T20:25:09.358Z,4.95
2023-01-13T20:27:36.662Z,8.60
2023-01-13T20:30:06.291Z,5.68
2023-01-13T20:32:33.331Z,4.68
2023-01-13T20:35:00.233Z,5.47
2023-01-13T20:37:27.521Z,4.78
2023-01-13T20:39:55.352Z,3.78
2023-01-13T20:42:41.092Z,7.03
2023-01-13T20:45:08.912Z,11.27
2023-01-13T20:47:47.953Z,9.13
2023-01-13T20:50:15.629Z,6.88
2023-01-13T20:52:42.805Z,8.45
2023-01-13T20:55:10.421Z,5.78
2023-01-13T20:57:37.377Z,6.88
2023-01-13T21:00:05.536Z,8.18
2023-01-13T21:02:32.582Z,6.53
2023-01-13T21:04:59.615Z,5.55
2023-01-13T21:07:26.506Z,6.93
2023-01-13T21:09:53.502Z,7.15
2023-01-13T21:12:38.717Z,8.10
2023-01-13T21:15:25.020Z,6.63
2023-01-13T21:18:10.574Z,7.40
2023-01-13T21:20:38.799Z,8.10
2023-01-13T21:23:06.393Z,8.57
2023-01-13T21:25:35.536Z,10.68
2023-01-13T21:28:11.283Z,4.22
2023-01-13T21:30:39.153Z,6.22
2023-01-13T21:33:06.563Z,11.15
2023-01-13T21:35:34.086Z,6.80
2023-01-13T21:38:01.090Z,5.85
2023-01-13T21:40:28.061Z,6.55
2023-01-13T21:43:13.505Z,5.30
2023-01-13T21:45:59.307Z,9.95
2023-01-13T21:48:26.448Z,6.95
2023-01-13T21:50:53.532Z,11.85
2023-01-13T21:53:20.697Z,9.05
2023-01-13T21:55:52.198Z,7.68
2023-01-13T21:58:19.401Z,6.38
2023-01-13T22:00:49.290Z,8.15
2023-01-13T22:03:18.602Z,7.25
2023-01-13T22:05:46.344Z,4.35
2023-01-13T22:08:13.910Z,6.30
2023-01-13T22:10:59.710Z,7.00
2023-01-13T22:13:47.930Z,8.18
2023-01-13T22:16:15.479Z,7.72
2023-01-13T22:18:42.547Z,9.90
2023-01-13T22:21:09.636Z,9.57
2023-01-13T22:23:36.577Z,8.85
2023-01-13T22:26:05.098Z,6.30
2023-01-13T22:28:40.058Z,8.10
2023-01-13T22:31:16.210Z,8.25
2023-01-13T22:33:43.744Z,5.00
2023-01-13T22:36:11.122Z,8.20
2023-01-13T22:38:38.280Z,5.50
2023-01-13T22:41:07.024Z,4.80
2023-01-13T22:43:34.835Z,5.03
2023-01-13T22:46:07.732Z,4.40
2023-01-13T22:48:35.332Z,6.93
2023-01-13T22:51:10.634Z,5.07
2023-01-13T22:53:38.074Z,6.30
2023-01-13T22:56:05.790Z,7.30
2023-01-13T22:58:32.879Z,5.32
2023-01-13T23:01:10.703Z,6.07
2023-01-13T23:03:37.763Z,5.85
2023-01-13T23:06:05.823Z,4.63
2023-01-13T23:08:34.097Z,5.20
2023-01-13T23:11:08.877Z,10.43
2023-01-13T23:13:37.941Z,7.40
2023-01-13T23:16:26.908Z,5.18
2023-01-13T23:18:54.144Z,6.07
2023-01-13T23:21:26.676Z,5.90
2023-01-13T23:23:54.114Z,6.28
2023-01-13T23:26:21.641Z,4.72
2023-01-13T23:28:48.828Z,5.82
2023-01-13T23:31:20.760Z,9.75
2023-01-13T23:36:20.349Z,6.72
2023-01-13T23:38:47.521Z,6.05
2023-01-13T23:41:16.364Z,8.27
2023-01-13T23:43:43.456Z,5.75
2023-01-13T23:46:13.081Z,4.50
2023-01-13T23:48:40.332Z,8.32
2023-01-13T23:51:10.641Z,3.60
2023-01-13T23:53:43.161Z,3.95
2023-01-13T23:56:18.704Z,6.60
2023-01-13T23:58:46.193Z,4.20
